Time;durP1;ratioP1;P1;durP2;ratioP2;P2;SDS_P1;SDS_P2;PMS_P1;PMS_P2;Temp;Humidity;BMP_temperature;BMP_pressure;BME280_temperature;BME280_humidity;BME280_pressure;Samples;Min_cycle;Max_cycle;Signal;HPM_P1;HPM_P2
2021/10/03 06:15:05;;;;;;;12.05;1.60;;;18.20;76.90;;;;;;4788981;24;20426;-68
2021/10/03 06:17:31;;;;;;;8.70;1.70;;;18.30;76.90;;;;;;4789053;30;20123;-68
2021/10/03 06:19:57;;;;;;;7.63;1.33;;;18.40;76.90;;;;;;4791953;30;20125;-69
2021/10/03 06:22:25;;;;;;;6.82;1.33;;;18.50;77.10;;;;;;4792466;30;20108;-67
2021/10/03 06:24:52;;;;;;;7.20;1.38;;;18.50;77.10;;;;;;4790277;30;20086;-69
2021/10/03 06:27:17;;;;;;;6.15;1.40;;;18.60;77.20;;;;;;4792429;29;20050;-68
2021/10/03 06:29:43;;;;;;;7.65;1.08;;;18.70;77.20;;;;;;4810617;29;20402;-68
2021/10/03 06:32:09;;;;;;;4.90;1.23;;;18.80;77.10;;;;;;4804119;29;20097;-68
2021/10/03 06:34:37;;;;;;;4.72;1.00;;;18.90;77.00;;;;;;4792332;30;20051;-73
2021/10/03 06:37:03;;;;;;;10.07;1.13;;;19.00;77.00;;;;;;4792222;30;20055;-73
2021/10/03 06:39:28;;;;;;;4.10;1.05;;;19.00;77.00;;;;;;4792137;30;20418;-69
2021/10/03 06:41:54;;;;;;;4.63;1.23;;;19.00;76.90;;;;;;4792401;30;20490;-69
2021/10/03 06:44:20;;;;;;;6.50;1.00;;;19.00;76.80;;;;;;4791860;30;20047;-69
2021/10/03 06:46:46;;;;;;;6.10;1.08;;;19.00;76.80;;;;;;4792219;30;20050;-69
2021/10/03 06:49:12;;;;;;;3.38;1.25;;;19.00;76.80;;;;;;4791963;30;20050;-70
2021/10/03 06:51:37;;;;;;;5.85;1.05;;;19.00;76.90;;;;;;4776332;30;20051;-70
2021/10/03 06:54:04;;;;;;;3.70;0.82;;;19.00;77.00;;;;;;4791947;30;20528;-69
2021/10/03 06:56:30;;;;;;;6.53;1.05;;;19.00;77.20;;;;;;4791994;30;20051;-69
2021/10/03 06:58:56;;;;;;;3.92;0.90;;;19.00;77.30;;;;;;4790849;29;20060;-70
2021/10/03 07:01:21;;;;;;;5.53;1.10;;;18.90;77.50;;;;;;4792159;30;20090;-69
2021/10/03 07:03:47;;;;;;;4.75;0.77;;;18.90;77.60;;;;;;4792199;30;20460;-69
2021/10/03 07:06:13;;;;;;;9.80;3.35;;;18.90;77.70;;;;;;4807703;29;20086;-69
2021/10/03 07:08:39;;;;;;;7.60;2.05;;;18.90;78.00;;;;;;4791964;29;20534;-69
2021/10/03 07:11:04;;;;;;;7.13;2.10;;;18.90;77.70;;;;;;4776273;30;20067;-69
2021/10/03 07:13:30;;;;;;;6.60;1.65;;;18.90;77.50;;;;;;4773799;30;20113;-70
2021/10/03 07:15:56;;;;;;;7.82;1.77;;;18.80;77.30;;;;;;4767722;30;20051;-71
2021/10/03 07:18:22;;;;;;;7.72;1.90;;;18.80;77.20;;;;;;4805724;29;20106;-68
2021/10/03 07:20:48;;;;;;;8.15;1.70;;;18.80;77.20;;;;;;4805011;29;20065;-69
2021/10/03 07:23:14;;;;;;;5.75;1.95;;;18.80;77.10;;;;;;4809513;29;20142;-70
2021/10/03 07:25:39;;;;;;;4.35;1.30;;;18.80;77.00;;;;;;4809597;29;20415;-70
2021/10/03 07:28:05;;;;;;;7.88;1.65;;;18.80;76.90;;;;;;4809638;29;20067;-71
2021/10/03 07:30:35;;;;;;;13.63;1.70;;;18.80;76.40;;;;;;4809685;29;20123;-71
2021/10/03 07:33:02;;;;;;;9.05;1.80;;;18.70;77.00;;;;;;4792679;29;20051;-70
2021/10/03 07:35:29;;;;;;;6.32;1.63;;;18.70;77.00;;;;;;4809378;29;20043;-70
2021/10/03 07:37:55;;;;;;;8.70;1.60;;;18.70;77.00;;;;;;4809393;29;20360;-71
2021/10/03 07:40:20;;;;;;;6.50;1.45;;;18.70;77.10;;;;;;4809147;29;20054;-70
2021/10/03 07:42:46;;;;;;;8.10;1.77;;;18.70;77.20;;;;;;4809239;29;20051;-70
2021/10/03 07:45:12;;;;;;;8.90;1.73;;;18.70;77.40;;;;;;4809244;29;20061;-72
2021/10/03 07:47:38;;;;;;;17.00;2.10;;;18.70;77.50;;;;;;4809096;29;20134;-70
2021/10/03 07:50:05;;;;;;;8.80;1.90;;;18.70;77.70;;;;;;4809755;29;20054;-73
2021/10/03 07:52:30;;;;;;;8.23;1.40;;;18.60;77.80;;;;;;4793880;29;20070;-70
2021/10/03 07:54:56;;;;;;;9.27;1.35;;;18.70;77.80;;;;;;4793491;29;20050;-71
2021/10/03 07:57:22;;;;;;;10.57;1.65;;;18.70;77.80;;;;;;4801679;29;20190;-67
2021/10/03 07:59:48;;;;;;;7.18;1.63;;;18.60;77.70;;;;;;4799494;29;20059;-71
2021/10/03 08:02:13;;;;;;;10.77;1.63;;;18.60;77.70;;;;;;4793140;29;20086;-69
2021/10/03 08:04:39;;;;;;;6.63;1.73;;;18.60;77.70;;;;;;4808816;29;20051;-71
2021/10/03 08:07:05;;;;;;;10.75;1.33;;;18.60;77.80;;;;;;4809015;29;20047;-69
2021/10/03 08:09:30;;;;;;;9.77;1.50;;;18.60;77.80;;;;;;4795761;29;20115;-70
2021/10/03 08:11:56;;;;;;;4.35;1.33;;;18.60;77.90;;;;;;4790588;30;20147;-69
2021/10/03 08:14:22;;;;;;;6.60;1.30;;;18.60;77.90;;;;;;4790750;30;20069;-69
2021/10/03 08:16:48;;;;;;;5.72;1.05;;;18.60;77.90;;;;;;4790210;30;20475;-70
2021/10/03 08:19:14;;;;;;;11.07;2.33;;;18.60;78.00;;;;;;4791482;30;20069;-69
2021/10/03 08:21:40;;;;;;;3.88;1.00;;;18.60;78.60;;;;;;4791135;30;20134;-70
2021/10/03 08:24:06;;;;;;;4.63;1.23;;;18.60;78.70;;;;;;4790686;30;20463;-70
2021/10/03 08:26:32;;;;;;;6.63;3.13;;;18.60;78.70;;;;;;4790612;30;20070;-72
2021/10/03 08:28:58;;;;;;;32.60;3.72;;;18.60;79.40;;;;;;4790502;30;20066;-73
2021/10/03 08:31:24;;;;;;;15.55;3.75;;;18.60;79.60;;;;;;4790633;30;20062;-72
2021/10/03 08:33:50;;;;;;;13.80;2.92;;;18.70;80.00;;;;;;4790264;30;20058;-70
2021/10/03 08:36:15;;;;;;;16.35;2.13;;;18.60;80.10;;;;;;4790403;30;20095;-70
2021/10/03 08:38:41;;;;;;;13.35;2.60;;;18.70;80.40;;;;;;4790341;30;20134;-75
2021/10/03 08:41:07;;;;;;;9.10;2.30;;;18.70;80.30;;;;;;4790770;30;20055;-76
2021/10/03 08:43:33;;;;;;;7.65;1.40;;;18.70;80.00;;;;;;4790554;30;20439;-75
2021/10/03 08:45:59;;;;;;;8.98;1.40;;;18.70;79.50;;;;;;4788336;30;20481;-74
2021/10/03 08:48:27;;;;;;;7.82;2.15;;;18.70;78.90;;;;;;4789678;30;20051;-77
2021/10/03 08:50:54;;;;;;;7.22;5.00;;;18.70;78.40;;;;;;4788687;30;20047;-81
2021/10/03 08:53:20;;;;;;;6.50;3.55;;;18.70;78.30;;;;;;4786752;30;20108;-75
2021/10/03 08:55:45;;;;;;;7.88;2.90;;;18.70;77.90;;;;;;4789979;30;20051;-73
2021/10/03 08:58:12;;;;;;;5.40;3.25;;;18.70;77.80;;;;;;4790242;30;20055;-71
2021/10/03 09:00:48;;;;;;;10.52;4.13;;;18.70;77.50;;;;;;4790405;30;20122;-70
2021/10/03 09:03:17;;;;;;;9.02;3.75;;;18.70;78.60;;;;;;4764203;30;20070;-75
2021/10/03 09:05:52;;;;;;;10.13;3.67;;;18.80;77.90;;;;;;4789346;30;20126;-74
2021/10/03 09:08:20;;;;;;;11.68;2.85;;;18.80;78.00;;;;;;4789825;30;20101;-74
2021/10/03 09:10:57;;;;;;;7.55;2.33;;;18.80;77.30;;;;;;4790117;30;20059;-73
2021/10/03 09:13:30;;;;;;;9.73;1.70;;;18.80;76.90;;;;;;4789966;30;20057;-75
2021/10/03 09:16:18;;;;;;;5.97;1.80;;;18.80;76.90;;;;;;4792466;29;20503;-76
2021/10/03 09:18:49;;;;;;;7.32;1.85;;;18.80;76.20;;;;;;4789907;29;20066;-76
2021/10/03 09:21:30;;;;;;;8.45;1.58;;;18.70;76.00;;;;;;4807573;29;20051;-76
2021/10/03 09:24:07;;;;;;;10.55;1.50;;;18.70;75.80;;;;;;4807403;29;20051;-76
2021/10/03 09:26:34;;;;;;;6.22;1.05;;;18.70;75.70;;;;;;4807163;29;20061;-69
2021/10/03 09:29:23;;;;;;;4.93;1.15;;;18.70;75.70;;;;;;4807849;29;20356;-72
2021/10/03 09:32:10;;;;;;;4.13;0.70;;;18.70;75.60;;;;;;4808111;29;20093;-72
2021/10/03 09:34:37;;;;;;;3.92;0.55;;;18.70;75.70;;;;;;4791874;29;20087;-69
2021/10/03 09:37:32;;;;;;;6.65;0.70;;;18.70;75.60;;;;;;4793898;29;20062;-69
2021/10/03 09:40:14;;;;;;;5.32;0.75;;;18.70;75.70;;;;;;4799097;29;20063;-69
2021/10/03 09:42:41;;;;;;;4.20;0.68;;;18.70;75.90;;;;;;4791738;29;20387;-69
2021/10/03 09:45:12;;;;;;;2.08;0.55;;;18.70;76.00;;;;;;4806802;29;20473;-69
2021/10/03 09:47:40;;;;;;;3.55;0.63;;;18.70;76.20;;;;;;4807681;29;20145;-69
2021/10/03 09:50:09;;;;;;;2.10;0.80;;;18.60;76.30;;;;;;4791592;29;20553;-69
2021/10/03 09:52:37;;;;;;;4.97;0.68;;;18.60;76.50;;;;;;4807660;29;20089;-69
2021/10/03 09:55:05;;;;;;;2.10;0.82;;;18.60;76.80;;;;;;4807419;29;20054;-69
2021/10/03 09:57:30;;;;;;;3.38;0.70;;;18.60;77.10;;;;;;4807674;29;20055;-69
2021/10/03 09:59:57;;;;;;;2.20;0.55;;;18.60;77.30;;;;;;4807162;29;20485;-69
2021/10/03 10:02:23;;;;;;;5.65;0.80;;;18.60;77.40;;;;;;4807096;29;20062;-69
2021/10/03 10:04:50;;;;;;;3.85;0.98;;;18.60;77.60;;;;;;4807410;29;20058;-69
2021/10/03 10:07:16;;;;;;;3.30;0.50;;;18.60;77.80;;;;;;4806950;29;20462;-69
2021/10/03 10:09:45;;;;;;;4.60;0.50;;;18.60;77.90;;;;;;4807819;29;20125;-69
2021/10/03 10:12:19;;;;;;;2.10;0.50;;;18.60;78.00;;;;;;4799795;29;20083;-70
2021/10/03 10:14:47;;;;;;;5.32;0.77;;;18.60;78.10;;;;;;4807147;29;20137;-69
2021/10/03 10:17:32;;;;;;;3.25;0.98;;;18.60;78.10;;;;;;4805467;29;20128;-69
2021/10/03 10:20:02;;;;;;;7.25;0.77;;;18.60;78.40;;;;;;4807223;29;20062;-69
2021/10/03 10:22:34;;;;;;;6.90;0.75;;;18.60;78.40;;;;;;4806898;29;20108;-71
2021/10/03 10:25:16;;;;;;;7.07;1.10;;;18.70;78.40;;;;;;4807247;29;20082;-71
2021/10/03 10:27:45;;;;;;;4.70;0.63;;;18.70;78.50;;;;;;4807141;29;20047;-70
2021/10/03 10:30:15;;;;;;;5.70;0.93;;;18.60;78.40;;;;;;4809591;29;20423;-70
2021/10/03 10:33:01;;;;;;;7.07;1.00;;;18.70;78.40;;;;;;4806854;29;20092;-71
2021/10/03 10:35:29;;;;;;;3.83;0.65;;;18.70;78.40;;;;;;4810098;29;20463;-70
2021/10/03 10:38:00;;;;;;;6.38;1.00;;;18.70;77.80;;;;;;4810215;29;20125;-70
2021/10/03 10:40:32;;;;;;;7.55;0.70;;;18.70;78.10;;;;;;4810085;29;20082;-75
2021/10/03 10:43:03;;;;;;;4.75;0.63;;;18.70;78.60;;;;;;4810184;29;20055;-70
2021/10/03 10:45:35;;;;;;;3.15;0.50;;;18.70;79.40;;;;;;4809955;29;20050;-71
2021/10/03 10:48:10;;;;;;;5.97;0.90;;;18.70;79.50;;;;;;4809841;29;20054;-70
2021/10/03 10:50:49;;;;;;;6.03;0.60;;;18.80;80.10;;;;;;4795625;29;20425;-75
2021/10/03 10:53:24;;;;;;;4.40;0.82;;;18.80;80.70;;;;;;4818613;29;20134;-72
2021/10/03 10:56:05;;;;;;;4.53;0.70;;;18.80;81.10;;;;;;4808710;29;20055;-70
2021/10/03 10:58:35;;;;;;;7.20;1.08;;;18.80;81.80;;;;;;4810033;29;20436;-70
2021/10/03 11:01:11;;;;;;;4.40;0.75;;;18.80;81.30;;;;;;4810024;29;20066;-70
2021/10/03 11:03:42;;;;;;;3.42;0.80;;;18.80;81.00;;;;;;4810065;29;20096;-70
2021/10/03 11:06:11;;;;;;;4.65;1.00;;;18.80;80.90;;;;;;4782563;29;20142;-70
2021/10/03 11:09:05;;;;;;;4.47;0.80;;;18.80;80.80;;;;;;4791865;30;20137;-72
2021/10/03 11:11:34;;;;;;;5.30;0.93;;;18.80;81.20;;;;;;4792055;30;20047;-72
2021/10/03 11:14:22;;;;;;;10.13;1.55;;;18.80;81.40;;;;;;4776072;30;20199;-69
2021/10/03 11:16:50;;;;;;;6.57;1.00;;;18.70;79.50;;;;;;4806053;29;20163;-69
2021/10/03 11:19:41;;;;;;;9.65;1.27;;;18.60;80.60;;;;;;4806761;29;20190;-70
2021/10/03 11:22:09;;;;;;;8.20;1.30;;;18.60;79.30;;;;;;4802801;29;20487;-70
2021/10/03 11:24:42;;;;;;;10.90;1.63;;;18.60;80.50;;;;;;4809026;29;20047;-70
2021/10/03 11:27:13;;;;;;;12.95;1.23;;;18.50;80.40;;;;;;4792396;29;20430;-69
2021/10/03 11:29:45;;;;;;;9.63;1.48;;;18.50;80.90;;;;;;4791745;30;20112;-70
2021/10/03 11:32:19;;;;;;;16.77;2.10;;;18.50;80.80;;;;;;4791490;30;20059;-73
2021/10/03 11:34:51;;;;;;;14.02;1.85;;;18.50;81.00;;;;;;4796384;29;20047;-70
2021/10/03 11:37:23;;;;;;;15.32;1.90;;;18.50;81.20;;;;;;4809634;29;20055;-69
2021/10/03 11:39:55;;;;;;;13.82;1.95;;;18.50;81.50;;;;;;4809819;29;20055;-70
2021/10/03 11:42:29;;;;;;;16.13;1.70;;;18.50;81.40;;;;;;4809525;29;20070;-70
2021/10/03 11:45:08;;;;;;;10.55;1.45;;;18.60;81.30;;;;;;4802849;29;20380;-70
2021/10/03 11:47:46;;;;;;;6.95;1.50;;;18.60;81.20;;;;;;4791417;30;20051;-71
2021/10/03 11:50:16;;;;;;;8.63;1.75;;;18.60;81.10;;;;;;4791280;29;20057;-70
2021/10/03 11:52:44;;;;;;;10.18;1.10;;;18.60;81.10;;;;;;4772419;30;20064;-69
2021/10/03 11:55:16;;;;;;;8.55;1.35;;;18.60;81.00;;;;;;4791941;29;20181;-70
2021/10/03 11:57:45;;;;;;;7.13;1.05;;;18.60;80.90;;;;;;4809785;29;20134;-70
2021/10/03 12:00:20;;;;;;;8.95;0.95;;;18.60;80.80;;;;;;4801878;29;20074;-69
2021/10/03 12:02:49;;;;;;;8.68;1.20;;;18.60;80.80;;;;;;4801197;29;20050;-70
2021/10/03 12:05:20;;;;;;;4.80;0.82;;;18.60;80.70;;;;;;4809390;29;20051;-70
2021/10/03 12:07:47;;;;;;;9.35;1.15;;;18.60;80.70;;;;;;4809052;29;20062;-69
2021/10/03 12:10:15;;;;;;;6.38;1.10;;;18.60;80.60;;;;;;4809781;29;20055;-70
2021/10/03 12:12:52;;;;;;;3.58;0.90;;;18.60;80.50;;;;;;4799722;29;20052;-70
2021/10/03 12:15:42;;;;;;;7.35;0.98;;;18.60;80.40;;;;;;4775075;30;20481;-70
2021/10/03 12:18:10;;;;;;;3.90;0.60;;;18.60;80.20;;;;;;4790628;30;20066;-70
2021/10/03 12:20:56;;;;;;;6.85;1.30;;;18.60;80.20;;;;;;4790892;30;20051;-70
2021/10/03 12:23:42;;;;;;;5.82;0.70;;;18.60;80.00;;;;;;4803487;29;20073;-70
2021/10/03 12:26:51;;;;;;;6.53;0.90;;;18.60;80.00;;;;;;4796200;29;20102;-70
2021/10/03 12:29:25;;;;;;;4.47;0.73;;;18.60;79.90;;;;;;4802964;29;20137;-71
2021/10/03 12:31:58;;;;;;;;;;;18.60;79.80;;;;;;4790776;30;20055;-69
2021/10/03 12:34:25;;;;;;;2.50;0.75;;;18.60;79.70;;;;;;4791161;30;20079;-69
2021/10/03 12:36:53;;;;;;;8.20;0.80;;;18.60;79.70;;;;;;4790716;30;20055;-69
2021/10/03 12:39:35;;;;;;;4.50;0.60;;;18.60;79.50;;;;;;4780264;29;20431;-70
2021/10/03 12:42:22;;;;;;;9.48;0.95;;;18.60;79.40;;;;;;4808464;29;20093;-69
2021/10/03 12:44:49;;;;;;;4.63;0.70;;;18.60;79.20;;;;;;4808310;29;20063;-70
2021/10/03 12:47:17;;;;;;;2.33;0.63;;;18.60;79.20;;;;;;4792360;29;20090;-69
2021/10/03 12:49:44;;;;;;;5.22;0.73;;;18.60;79.00;;;;;;4808201;29;20065;-69
2021/10/03 12:52:11;;;;;;;5.28;0.50;;;18.60;78.90;;;;;;4808321;29;20054;-70
2021/10/03 12:54:37;;;;;;;2.20;0.50;;;18.60;78.70;;;;;;4808329;29;20059;-70
2021/10/03 12:57:05;;;;;;;3.47;0.88;;;18.60;78.60;;;;;;4808305;29;20093;-70
2021/10/03 12:59:31;;;;;;;4.10;0.55;;;18.60;78.50;;;;;;4807806;29;20051;-69
2021/10/03 13:01:57;;;;;;;4.50;0.60;;;18.60;78.40;;;;;;4808413;29;20398;-69
2021/10/03 13:04:23;;;;;;;4.68;0.40;;;18.60;78.30;;;;;;4808172;29;20055;-70
2021/10/03 13:06:49;;;;;;;1.85;0.60;;;18.60;78.20;;;;;;4808309;29;20047;-70
2021/10/03 13:09:16;;;;;;;3.08;0.50;;;18.70;78.20;;;;;;4807813;29;20057;-69
2021/10/03 13:11:42;;;;;;;1.80;0.50;;;18.60;78.10;;;;;;4808623;29;20058;-70
2021/10/03 13:14:08;;;;;;;2.50;0.90;;;18.60;78.00;;;;;;4807973;29;20458;-70
2021/10/03 13:16:34;;;;;;;3.33;0.50;;;18.60;78.00;;;;;;4808136;29;20043;-70
2021/10/03 13:18:59;;;;;;;3.78;0.73;;;18.60;77.90;;;;;;4807558;29;20135;-70
2021/10/03 13:21:25;;;;;;;2.58;0.50;;;18.60;77.90;;;;;;4808131;29;20142;-70
2021/10/03 13:23:51;;;;;;;2.75;0.50;;;18.60;77.90;;;;;;4808715;29;20058;-69
2021/10/03 13:26:17;;;;;;;3.15;0.73;;;18.60;77.80;;;;;;4808038;29;20361;-70
2021/10/03 13:28:43;;;;;;;1.83;0.40;;;18.60;77.80;;;;;;4807713;29;20059;-70
2021/10/03 13:31:10;;;;;;;3.35;0.55;;;18.70;77.70;;;;;;4790059;30;20134;-70
2021/10/03 13:33:36;;;;;;;1.90;0.40;;;18.60;77.70;;;;;;4790004;30;20056;-70
2021/10/03 13:36:02;;;;;;;2.85;0.50;;;18.60;77.60;;;;;;4790108;30;20051;-69
2021/10/03 13:38:28;;;;;;;1.50;0.68;;;18.60;77.60;;;;;;4789856;30;20059;-70
2021/10/03 13:40:53;;;;;;;2.53;0.40;;;18.70;77.60;;;;;;4805670;29;20435;-70
2021/10/03 13:43:19;;;;;;;1.95;0.45;;;18.60;77.50;;;;;;4807792;29;20059;-70
2021/10/03 13:45:45;;;;;;;1.80;0.30;;;18.60;77.40;;;;;;4807871;29;20122;-70
2021/10/03 13:48:14;;;;;;;0.98;0.43;;;18.60;77.90;;;;;;4807914;29;20077;-69
2021/10/03 13:50:40;;;;;;;1.65;0.35;;;18.60;77.40;;;;;;4807255;29;20458;-73
2021/10/03 13:53:06;;;;;;;2.95;0.60;;;18.60;77.30;;;;;;4806048;29;20051;-70
2021/10/03 13:55:31;;;;;;;3.10;0.30;;;18.60;77.30;;;;;;4811684;29;20450;-70
2021/10/03 13:57:57;;;;;;;1.92;0.40;;;18.50;76.90;;;;;;4807099;29;20047;-70
2021/10/03 14:00:23;;;;;;;1.90;0.40;;;18.50;77.20;;;;;;4807744;29;20055;-76
2021/10/03 14:02:49;;;;;;;4.13;0.30;;;18.50;77.30;;;;;;4796099;29;20469;-71
2021/10/03 14:05:17;;;;;;;2.75;0.47;;;18.50;77.30;;;;;;4807472;29;20375;-70
2021/10/03 14:07:43;;;;;;;1.05;0.55;;;18.50;77.40;;;;;;4807475;29;20495;-69
2021/10/03 14:10:16;;;;;;;4.75;0.60;;;18.50;77.60;;;;;;4811786;29;20452;-72
2021/10/03 14:12:42;;;;;;;2.97;0.55;;;18.50;77.50;;;;;;4810186;29;20482;-70
2021/10/03 14:15:09;;;;;;;2.35;0.40;;;18.40;77.70;;;;;;4806795;29;20058;-70
2021/10/03 14:17:35;;;;;;;5.07;0.47;;;18.40;77.90;;;;;;4810971;29;20553;-70
2021/10/03 14:20:03;;;;;;;1.95;0.50;;;18.50;78.00;;;;;;4799819;29;20126;-71
2021/10/03 14:22:29;;;;;;;4.57;0.50;;;18.40;78.00;;;;;;4793205;30;20051;-72
2021/10/03 14:24:55;;;;;;;4.05;0.50;;;18.40;78.00;;;;;;4793024;30;20459;-71
2021/10/03 14:27:21;;;;;;;3.42;0.47;;;18.50;78.10;;;;;;4792633;30;20040;-74
2021/10/03 14:29:47;;;;;;;2.97;0.55;;;18.50;78.20;;;;;;4792696;30;20066;-72
2021/10/03 14:32:13;;;;;;;5.88;0.80;;;18.50;78.30;;;;;;4792809;30;20055;-71
2021/10/03 14:34:38;;;;;;;13.80;1.10;;;18.50;78.30;;;;;;4792515;29;20371;-72
2021/10/03 14:37:06;;;;;;;4.45;0.40;;;18.50;78.30;;;;;;4814903;29;20050;-71
2021/10/03 14:39:32;;;;;;;6.35;0.50;;;18.50;78.50;;;;;;4810157;29;20046;-72
2021/10/03 14:41:58;;;;;;;4.32;0.60;;;18.50;78.40;;;;;;4797843;29;20530;-72
2021/10/03 14:44:24;;;;;;;2.25;0.47;;;18.60;78.30;;;;;;4819779;29;20134;-72
2021/10/03 14:46:50;;;;;;;3.22;0.40;;;18.60;78.30;;;;;;4778972;30;20375;-72
2021/10/03 14:49:15;;;;;;;3.42;0.43;;;18.60;78.20;;;;;;4800535;29;20467;-72
2021/10/03 14:51:41;;;;;;;4.32;0.40;;;18.70;78.10;;;;;;4815914;29;20075;-72
2021/10/03 14:54:08;;;;;;;4.20;0.30;;;18.70;78.10;;;;;;4815819;29;20086;-72
2021/10/03 14:56:34;;;;;;;5.38;0.60;;;18.80;78.50;;;;;;4809739;29;20482;-71
2021/10/03 14:59:00;;;;;;;2.70;0.40;;;18.80;78.00;;;;;;4810184;29;20043;-71
2021/10/03 15:01:25;;;;;;;7.13;0.73;;;18.60;77.90;;;;;;4809872;29;20058;-71
2021/10/03 15:03:51;;;;;;;5.10;0.40;;;18.60;78.30;;;;;;4809959;29;20148;-71
2021/10/03 15:06:17;;;;;;;1.08;0.40;;;18.60;78.90;;;;;;4809789;29;20047;-72
2021/10/03 15:08:43;;;;;;;4.20;0.40;;;18.60;79.40;;;;;;4792856;29;20112;-70
2021/10/03 15:11:08;;;;;;;2.63;0.45;;;18.70;79.60;;;;;;4792219;30;20066;-72
2021/10/03 15:13:34;;;;;;;2.80;0.40;;;18.80;79.70;;;;;;4792700;30;20047;-72
2021/10/03 15:16:00;;;;;;;3.92;0.32;;;18.80;79.70;;;;;;4791697;30;20128;-72
2021/10/03 15:18:26;;;;;;;1.40;0.20;;;18.90;79.80;;;;;;4804632;29;20344;-71
2021/10/03 15:20:52;;;;;;;5.40;0.57;;;18.90;79.80;;;;;;4808601;29;20088;-72
2021/10/03 15:23:18;;;;;;;3.65;0.40;;;18.90;79.80;;;;;;4809966;29;20051;-73
2021/10/03 15:25:44;;;;;;;10.25;0.82;;;19.00;79.90;;;;;;4809704;29;20057;-72
2021/10/03 15:28:09;;;;;;;4.72;0.30;;;19.00;80.00;;;;;;4797907;29;20070;-72
2021/10/03 15:30:41;;;;;;;2.88;0.50;;;19.00;80.10;;;;;;4791552;30;20070;-72
2021/10/03 15:33:10;;;;;;;4.35;0.43;;;19.00;80.20;;;;;;4791633;30;20095;-71
2021/10/03 15:35:37;;;;;;;9.27;0.60;;;19.00;80.10;;;;;;4792196;30;20151;-71
2021/10/03 15:38:04;;;;;;;7.57;0.55;;;19.00;80.20;;;;;;4785902;29;20066;-71
2021/10/03 15:40:30;;;;;;;2.25;0.50;;;19.00;80.30;;;;;;4809268;29;20187;-72
2021/10/03 15:42:55;;;;;;;9.63;0.82;;;19.00;80.30;;;;;;4809682;29;20515;-72
2021/10/03 15:45:21;;;;;;;6.95;0.90;;;19.00;80.40;;;;;;4808825;29;20137;-72
2021/10/03 15:47:47;;;;;;;9.55;0.98;;;18.90;80.60;;;;;;4808315;29;20047;-71
2021/10/03 15:50:13;;;;;;;6.05;1.20;;;18.90;80.70;;;;;;4809727;29;20104;-71
2021/10/03 15:52:39;;;;;;;12.75;0.80;;;18.90;80.80;;;;;;4810128;29;20058;-72
2021/10/03 15:55:07;;;;;;;12.85;0.85;;;18.90;81.00;;;;;;4809936;29;20054;-71
2021/10/03 15:57:33;;;;;;;9.13;0.95;;;18.90;80.90;;;;;;4808706;29;20116;-71
2021/10/03 15:59:59;;;;;;;3.90;0.68;;;18.90;80.90;;;;;;4808837;29;20410;-72
2021/10/03 16:02:25;;;;;;;13.00;1.08;;;18.90;80.90;;;;;;4809035;29;20134;-72
2021/10/03 16:04:52;;;;;;;4.90;0.68;;;18.80;80.70;;;;;;4808968;29;20518;-72
2021/10/03 16:07:18;;;;;;;4.43;0.70;;;18.80;80.60;;;;;;4808900;29;20101;-72
2021/10/03 16:09:43;;;;;;;11.80;1.33;;;18.80;80.60;;;;;;4809103;29;20090;-72
2021/10/03 16:12:09;;;;;;;5.68;1.15;;;18.80;80.60;;;;;;4809111;29;20062;-73
2021/10/03 16:14:35;;;;;;;15.18;1.02;;;18.80;80.50;;;;;;4808651;29;20143;-72
2021/10/03 16:17:01;;;;;;;7.75;1.25;;;18.80;80.40;;;;;;4808605;29;20141;-72
2021/10/03 16:19:28;;;;;;;8.82;1.13;;;18.80;80.00;;;;;;4793355;29;20058;-72
2021/10/03 16:21:54;;;;;;;8.07;0.80;;;18.80;80.10;;;;;;4807041;29;20065;-72
2021/10/03 16:24:21;;;;;;;6.32;0.98;;;18.80;80.70;;;;;;4809339;29;20133;-72
2021/10/03 16:26:46;;;;;;;2.50;0.82;;;18.80;80.00;;;;;;4809248;29;20336;-72
2021/10/03 16:29:12;;;;;;;3.30;0.60;;;18.80;80.10;;;;;;4808820;29;20145;-71
2021/10/03 16:31:39;;;;;;;10.93;0.93;;;18.80;80.00;;;;;;4807996;29;20061;-71
2021/10/03 16:34:06;;;;;;;6.63;0.80;;;18.80;79.90;;;;;;4774818;30;20047;-70
2021/10/03 16:36:32;;;;;;;7.72;0.82;;;18.80;79.90;;;;;;4790529;30;20071;-70
2021/10/03 16:38:59;;;;;;;7.25;1.30;;;18.70;79.00;;;;;;4790565;30;20051;-70
2021/10/03 16:41:25;;;;;;;5.47;0.70;;;18.70;79.10;;;;;;4790749;30;20051;-70
2021/10/03 16:43:55;;;;;;;7.63;0.95;;;18.70;79.30;;;;;;4806827;29;20378;-71
2021/10/03 16:46:21;;;;;;;5.68;1.20;;;18.70;79.10;;;;;;4808303;29;20061;-70
2021/10/03 16:48:47;;;;;;;7.95;0.75;;;18.70;79.10;;;;;;4808081;29;20138;-70
2021/10/03 16:51:14;;;;;;;4.38;1.00;;;18.60;79.20;;;;;;4808803;29;20129;-70
2021/10/03 16:53:40;;;;;;;6.88;1.17;;;18.60;79.20;;;;;;4792790;29;20058;-70
2021/10/03 16:56:06;;;;;;;6.70;1.23;;;18.60;79.20;;;;;;4790420;30;20051;-70
2021/10/03 16:58:34;;;;;;;3.45;0.50;;;18.60;79.80;;;;;;4790248;30;20120;-70
2021/10/03 17:01:00;;;;;;;3.22;0.70;;;18.60;79.20;;;;;;4790769;30;20062;-70
2021/10/03 17:03:26;;;;;;;3.80;0.50;;;18.60;79.20;;;;;;4803003;29;20466;-70
2021/10/03 17:05:52;;;;;;;4.22;0.60;;;18.60;79.10;;;;;;4808312;29;20090;-70
2021/10/03 17:08:19;;;;;;;3.35;0.63;;;18.60;78.90;;;;;;4790814;29;20101;-70
2021/10/03 17:10:45;;;;;;;4.20;0.70;;;18.60;78.70;;;;;;4808063;29;20058;-71
2021/10/03 17:13:11;;;;;;;3.53;0.90;;;18.60;78.60;;;;;;4787605;30;20051;-69
2021/10/03 17:15:38;;;;;;;7.30;1.48;;;18.60;78.60;;;;;;4789237;30;20106;-70
2021/10/03 17:18:04;;;;;;;3.80;0.80;;;18.60;78.60;;;;;;4788840;30;20092;-70
2021/10/03 17:20:30;;;;;;;2.67;0.70;;;18.60;78.70;;;;;;4789829;30;20128;-70
2021/10/03 17:22:56;;;;;;;1.85;0.63;;;18.50;78.60;;;;;;4790229;30;20447;-70
2021/10/03 17:25:22;;;;;;;4.88;0.80;;;18.50;78.70;;;;;;4773914;30;20047;-70
2021/10/03 17:27:48;;;;;;;2.65;0.50;;;18.50;78.70;;;;;;4789667;30;20062;-70
2021/10/03 17:30:15;;;;;;;1.73;0.60;;;18.50;78.70;;;;;;4789672;30;20059;-70
2021/10/03 17:32:42;;;;;;;3.50;0.65;;;18.40;78.70;;;;;;4789823;30;20082;-70
2021/10/03 17:35:10;;;;;;;3.50;0.65;;;18.50;78.80;;;;;;4790208;30;20059;-70
2021/10/03 17:37:36;;;;;;;2.92;0.73;;;18.50;79.40;;;;;;4789907;30;20039;-70
2021/10/03 17:40:08;;;;;;;2.15;0.70;;;18.50;78.70;;;;;;4790062;30;20403;-73
2021/10/03 17:42:35;;;;;;;1.48;0.57;;;18.50;78.50;;;;;;4789705;29;20078;-70
2021/10/03 17:45:02;;;;;;;4.28;0.73;;;18.50;78.30;;;;;;4793681;30;20051;-71
2021/10/03 17:47:27;;;;;;;3.28;0.55;;;18.50;78.00;;;;;;4788247;30;20467;-69
2021/10/03 17:49:53;;;;;;;2.22;0.60;;;18.50;77.90;;;;;;4793258;30;20047;-68
2021/10/03 17:52:19;;;;;;;1.00;0.40;;;18.60;77.90;;;;;;4793281;30;20075;-68
2021/10/03 17:54:44;;;;;;;2.72;0.40;;;18.60;77.80;;;;;;4793522;30;20062;-69
2021/10/03 17:57:10;;;;;;;5.20;0.80;;;18.60;77.60;;;;;;4793316;30;20047;-69
2021/10/03 17:59:40;;;;;;;7.28;0.63;;;18.60;77.40;;;;;;4793667;30;20397;-70
2021/10/03 18:02:06;;;;;;;2.33;0.50;;;18.60;77.40;;;;;;4786571;30;20093;-69
2021/10/03 18:04:32;;;;;;;2.65;0.80;;;18.60;77.30;;;;;;4793045;30;20051;-69
2021/10/03 18:06:58;;;;;;;2.10;0.55;;;18.60;77.30;;;;;;4793077;30;20055;-69
2021/10/03 18:09:24;;;;;;;2.88;0.70;;;18.70;77.20;;;;;;4792951;30;20051;-69
2021/10/03 18:11:55;;;;;;;2.03;0.55;;;18.70;77.10;;;;;;4792606;30;20485;-68
2021/10/03 18:14:21;;;;;;;2.75;0.98;;;18.70;77.00;;;;;;4792967;30;20176;-69
2021/10/03 18:16:47;;;;;;;2.17;0.70;;;18.70;77.00;;;;;;4810444;29;20062;-69
2021/10/03 18:19:14;;;;;;;1.55;0.50;;;18.70;76.80;;;;;;4810805;29;20069;-69
2021/10/03 18:21:39;;;;;;;1.95;0.40;;;18.70;76.70;;;;;;4810734;29;20375;-69
2021/10/03 18:24:05;;;;;;;1.67;0.50;;;18.70;76.60;;;;;;4810949;29;20058;-69
2021/10/03 18:26:31;;;;;;;1.83;0.65;;;18.70;76.60;;;;;;4810583;29;20055;-70
2021/10/03 18:28:57;;;;;;;1.13;0.47;;;18.70;76.50;;;;;;4810824;29;20470;-70
2021/10/03 18:31:22;;;;;;;2.78;0.60;;;18.70;76.40;;;;;;4810796;29;20197;-69
2021/10/03 18:33:48;;;;;;;1.52;0.63;;;18.70;76.40;;;;;;4810705;29;20057;-69
2021/10/03 18:36:15;;;;;;;2.10;0.68;;;18.70;76.40;;;;;;4810757;29;20485;-69
2021/10/03 18:38:41;;;;;;;8.80;0.90;;;18.70;76.30;;;;;;4810746;29;20057;-70
2021/10/03 18:41:08;;;;;;;1.75;0.45;;;18.70;76.30;;;;;;4804688;29;20394;-69
2021/10/03 18:43:34;;;;;;;2.28;0.50;;;18.70;76.80;;;;;;4792503;30;20061;-69
2021/10/03 18:46:00;;;;;;;1.95;0.57;;;18.70;76.20;;;;;;4792172;30;20391;-70
2021/10/03 18:48:25;;;;;;;3.20;0.50;;;18.70;76.10;;;;;;4792263;30;20055;-69
2021/10/03 18:50:51;;;;;;;1.98;0.50;;;18.70;76.00;;;;;;4792534;30;20051;-69
2021/10/03 18:53:17;;;;;;;3.22;0.60;;;18.70;76.10;;;;;;4792369;30;20051;-70
2021/10/03 18:55:42;;;;;;;4.28;1.10;;;18.70;76.00;;;;;;4792119;29;20062;-69
2021/10/03 18:58:08;;;;;;;2.75;0.65;;;18.70;76.00;;;;;;4799656;29;20527;-69
2021/10/03 19:00:34;;;;;;;2.15;0.30;;;18.70;75.90;;;;;;4811887;29;20046;-69
2021/10/03 19:02:59;;;;;;;2.33;0.60;;;18.70;75.80;;;;;;4792285;30;20086;-69
2021/10/03 19:05:25;;;;;;;2.53;0.40;;;18.70;75.80;;;;;;4793004;30;20050;-69